sensor_id;sensor_type;location;lat;lon;timestamp;pressure;altitude;pressure_sealevel;temperature
19040;BMP180;9652;49.014;12.052;2023-07-31T00:00:43;97885.00;;;18.60
19040;BMP180;9652;49.014;12.052;2023-07-31T00:03:12;97827.00;;;18.50
19040;BMP180;9652;49.014;12.052;2023-07-31T00:05:39;97886.00;;;18.50
19040;BMP180;9652;49.014;12.052;2023-07-31T00:08:07;97870.00;;;18.50
19040;BMP180;9652;49.014;12.052;2023-07-31T00:10:34;97874.00;;;18.50
19040;BMP180;9652;49.014;12.052;2023-07-31T00:13:01;97867.00;;;18.40
19040;BMP180;9652;49.014;12.052;2023-07-31T00:15:29;97872.00;;;18.40
19040;BMP180;9652;49.014;12.052;2023-07-31T00:17:56;97873.00;;;18.40
19040;BMP180;9652;49.014;12.052;2023-07-31T00:20:23;97873.00;;;18.30
19040;BMP180;9652;49.014;12.052;2023-07-31T00:22:50;97880.00;;;18.30
19040;BMP180;9652;49.014;12.052;2023-07-31T00:25:17;97832.00;;;18.00
19040;BMP180;9652;49.014;12.052;2023-07-31T00:27:45;97885.00;;;18.20
19040;BMP180;9652;49.014;12.052;2023-07-31T00:30:12;97878.00;;;18.20
19040;BMP180;9652;49.014;12.052;2023-07-31T00:32:39;97883.00;;;18.20
19040;BMP180;9652;49.014;12.052;2023-07-31T00:35:06;97875.00;;;18.10
19040;BMP180;9652;49.014;12.052;2023-07-31T00:37:33;97871.00;;;18.10
19040;BMP180;9652;49.014;12.052;2023-07-31T00:40:00;97878.00;;;18.00
19040;BMP180;9652;49.014;12.052;2023-07-31T00:42:31;97876.00;;;18.00
19040;BMP180;9652;49.014;12.052;2023-07-31T00:44:58;97876.00;;;18.00
19040;BMP180;9652;49.014;12.052;2023-07-31T00:47:25;97876.00;;;18.00
19040;BMP180;9652;49.014;12.052;2023-07-31T00:49:53;97860.00;;;17.90
19040;BMP180;9652;49.014;12.052;2023-07-31T00:52:20;97869.00;;;17.90
19040;BMP180;9652;49.014;12.052;2023-07-31T00:54:49;97867.00;;;17.90
19040;BMP180;9652;49.014;12.052;2023-07-31T00:57:16;97843.00;;;17.90
19040;BMP180;9652;49.014;12.052;2023-07-31T00:59:45;97871.00;;;17.80
19040;BMP180;9652;49.014;12.052;2023-07-31T01:02:12;97834.00;;;17.90
19040;BMP180;9652;49.014;12.052;2023-07-31T01:04:42;97854.00;;;17.80
19040;BMP180;9652;49.014;12.052;2023-07-31T01:07:20;97778.00;;;17.80
19040;BMP180;9652;49.014;12.052;2023-07-31T01:10:00;97865.00;;;17.80
19040;BMP180;9652;49.014;12.052;2023-07-31T01:12:31;97864.00;;;17.80
19040;BMP180;9652;49.014;12.052;2023-07-31T01:15:08;97835.00;;;17.80
19040;BMP180;9652;49.014;12.052;2023-07-31T01:17:37;97861.00;;;17.70
19040;BMP180;9652;49.014;12.052;2023-07-31T01:20:11;97857.00;;;17.70
19040;BMP180;9652;49.014;12.052;2023-07-31T01:23:24;97853.00;;;17.70
19040;BMP180;9652;49.014;12.052;2023-07-31T01:26:03;97858.00;;;17.60
19040;BMP180;9652;49.014;12.052;2023-07-31T01:28:42;97852.00;;;17.40
19040;BMP180;9652;49.014;12.052;2023-07-31T01:31:17;97835.00;;;17.70
19040;BMP180;9652;49.014;12.052;2023-07-31T01:33:46;97844.00;;;17.70
19040;BMP180;9652;49.014;12.052;2023-07-31T01:36:14;97835.00;;;17.70
19040;BMP180;9652;49.014;12.052;2023-07-31T01:38:41;97819.00;;;17.70
19040;BMP180;9652;49.014;12.052;2023-07-31T01:41:09;97812.00;;;17.80
19040;BMP180;9652;49.014;12.052;2023-07-31T01:43:37;97836.00;;;17.80
19040;BMP180;9652;49.014;12.052;2023-07-31T01:46:04;97838.00;;;17.80
19040;BMP180;9652;49.014;12.052;2023-07-31T01:48:32;97843.00;;;17.80
19040;BMP180;9652;49.014;12.052;2023-07-31T01:51:03;97827.00;;;17.80
19040;BMP180;9652;49.014;12.052;2023-07-31T01:53:31;97832.00;;;17.80
19040;BMP180;9652;49.014;12.052;2023-07-31T01:55:58;97826.00;;;17.80
19040;BMP180;9652;49.014;12.052;2023-07-31T01:58:27;97826.00;;;17.70
19040;BMP180;9652;49.014;12.052;2023-07-31T02:00:54;97831.00;;;17.70
19040;BMP180;9652;49.014;12.052;2023-07-31T02:03:21;97818.00;;;17.70
19040;BMP180;9652;49.014;12.052;2023-07-31T02:05:51;97825.00;;;17.70
19040;BMP180;9652;49.014;12.052;2023-07-31T02:08:18;97783.00;;;17.60
19040;BMP180;9652;49.014;12.052;2023-07-31T02:10:45;97829.00;;;17.60
19040;BMP180;9652;49.014;12.052;2023-07-31T02:13:12;97820.00;;;17.60
19040;BMP180;9652;49.014;12.052;2023-07-31T02:15:41;97765.00;;;17.50
19040;BMP180;9652;49.014;12.052;2023-07-31T02:18:09;97819.00;;;17.50
19040;BMP180;9652;49.014;12.052;2023-07-31T02:20:36;97819.00;;;17.50
19040;BMP180;9652;49.014;12.052;2023-07-31T02:23:03;97819.00;;;17.50
19040;BMP180;9652;49.014;12.052;2023-07-31T02:25:30;97803.00;;;17.40
19040;BMP180;9652;49.014;12.052;2023-07-31T02:27:57;97814.00;;;17.40
19040;BMP180;9652;49.014;12.052;2023-07-31T02:30:25;97798.00;;;17.40
19040;BMP180;9652;49.014;12.052;2023-07-31T02:32:53;97781.00;;;17.30
19040;BMP180;9652;49.014;12.052;2023-07-31T02:35:21;97818.00;;;17.30
19040;BMP180;9652;49.014;12.052;2023-07-31T02:37:48;97724.00;;;17.30
19040;BMP180;9652;49.014;12.052;2023-07-31T02:40:15;97806.00;;;17.30
19040;BMP180;9652;49.014;12.052;2023-07-31T02:42:42;97770.00;;;17.10
19040;BMP180;9652;49.014;12.052;2023-07-31T02:45:09;97793.00;;;17.20
19040;BMP180;9652;49.014;12.052;2023-07-31T02:47:36;97797.00;;;17.20
19040;BMP180;9652;49.014;12.052;2023-07-31T02:50:06;97789.00;;;17.20
19040;BMP180;9652;49.014;12.052;2023-07-31T02:52:33;97806.00;;;17.20
19040;BMP180;9652;49.014;12.052;2023-07-31T02:55:00;97796.00;;;17.20
19040;BMP180;9652;49.014;12.052;2023-07-31T02:57:27;97802.00;;;17.20
19040;BMP180;9652;49.014;12.052;2023-07-31T02:59:55;97802.00;;;17.30
19040;BMP180;9652;49.014;12.052;2023-07-31T03:02:22;97799.00;;;17.30
19040;BMP180;9652;49.014;12.052;2023-07-31T03:04:49;97810.00;;;17.30
19040;BMP180;9652;49.014;12.052;2023-07-31T03:07:17;97770.00;;;17.30
19040;BMP180;9652;49.014;12.052;2023-07-31T03:09:44;97808.00;;;17.30
19040;BMP180;9652;49.014;12.052;2023-07-31T03:12:11;97813.00;;;17.30
19040;BMP180;9652;49.014;12.052;2023-07-31T03:14:38;97794.00;;;17.20
19040;BMP180;9652;49.014;12.052;2023-07-31T03:17:06;97790.00;;;17.20
19040;BMP180;9652;49.014;12.052;2023-07-31T03:19:33;97814.00;;;17.20
19040;BMP180;9652;49.014;12.052;2023-07-31T03:22:00;97760.00;;;17.20
19040;BMP180;9652;49.014;12.052;2023-07-31T03:24:30;97814.00;;;17.10
19040;BMP180;9652;49.014;12.052;2023-07-31T03:26:57;97792.00;;;17.10
19040;BMP180;9652;49.014;12.052;2023-07-31T03:29:24;97767.00;;;17.10
19040;BMP180;9652;49.014;12.052;2023-07-31T03:31:52;97818.00;;;17.10
19040;BMP180;9652;49.014;12.052;2023-07-31T03:34:19;97757.00;;;17.10
19040;BMP180;9652;49.014;12.052;2023-07-31T03:36:46;97812.00;;;17.00
19040;BMP180;9652;49.014;12.052;2023-07-31T03:39:13;97818.00;;;17.00
19040;BMP180;9652;49.014;12.052;2023-07-31T03:41:41;97819.00;;;17.00
19040;BMP180;9652;49.014;12.052;2023-07-31T03:44:08;97827.00;;;17.00
19040;BMP180;9652;49.014;12.052;2023-07-31T03:46:36;97831.00;;;17.00
19040;BMP180;9652;49.014;12.052;2023-07-31T03:49:03;97818.00;;;16.90
19040;BMP180;9652;49.014;12.052;2023-07-31T03:51:30;97811.00;;;16.90
19040;BMP180;9652;49.014;12.052;2023-07-31T03:53:57;97789.00;;;16.90
19040;BMP180;9652;49.014;12.052;2023-07-31T03:56:24;97807.00;;;16.90
19040;BMP180;9652;49.014;12.052;2023-07-31T03:58:52;97813.00;;;16.90
19040;BMP180;9652;49.014;12.052;2023-07-31T04:01:20;97787.00;;;16.90
19040;BMP180;9652;49.014;12.052;2023-07-31T04:03:47;97814.00;;;16.90
19040;BMP180;9652;49.014;12.052;2023-07-31T04:06:14;97772.00;;;16.90
19040;BMP180;9652;49.014;12.052;2023-07-31T04:08:43;97772.00;;;17.00
19040;BMP180;9652;49.014;12.052;2023-07-31T04:11:11;97823.00;;;17.00
19040;BMP180;9652;49.014;12.052;2023-07-31T04:13:38;97810.00;;;17.00
19040;BMP180;9652;49.014;12.052;2023-07-31T04:16:06;97815.00;;;17.00
19040;BMP180;9652;49.014;12.052;2023-07-31T04:18:34;97802.00;;;17.00
19040;BMP180;9652;49.014;12.052;2023-07-31T04:21:02;97807.00;;;17.00
19040;BMP180;9652;49.014;12.052;2023-07-31T04:23:29;97802.00;;;17.00
19040;BMP180;9652;49.014;12.052;2023-07-31T04:25:56;97801.00;;;17.00
19040;BMP180;9652;49.014;12.052;2023-07-31T04:28:23;97802.00;;;17.00
19040;BMP180;9652;49.014;12.052;2023-07-31T04:30:52;97788.00;;;17.00
19040;BMP180;9652;49.014;12.052;2023-07-31T04:33:26;97799.00;;;17.00
19040;BMP180;9652;49.014;12.052;2023-07-31T04:35:54;97803.00;;;17.00
19040;BMP180;9652;49.014;12.052;2023-07-31T04:38:21;97799.00;;;17.00
19040;BMP180;9652;49.014;12.052;2023-07-31T04:40:49;97783.00;;;17.10
19040;BMP180;9652;49.014;12.052;2023-07-31T04:43:16;97792.00;;;17.10
19040;BMP180;9652;49.014;12.052;2023-07-31T04:45:46;97802.00;;;17.20
19040;BMP180;9652;49.014;12.052;2023-07-31T04:48:14;97761.00;;;17.20
19040;BMP180;9652;49.014;12.052;2023-07-31T04:50:42;97788.00;;;17.30
19040;BMP180;9652;49.014;12.052;2023-07-31T04:53:09;97776.00;;;17.30
19040;BMP180;9652;49.014;12.052;2023-07-31T04:55:36;97779.00;;;17.40
19040;BMP180;9652;49.014;12.052;2023-07-31T04:58:05;97778.00;;;17.40
19040;BMP180;9652;49.014;12.052;2023-07-31T05:00:32;97724.00;;;17.50
19040;BMP180;9652;49.014;12.052;2023-07-31T05:02:59;97765.00;;;17.60
19040;BMP180;9652;49.014;12.052;2023-07-31T05:05:26;97769.00;;;17.60
19040;BMP180;9652;49.014;12.052;2023-07-31T05:07:54;97771.00;;;17.70
19040;BMP180;9652;49.014;12.052;2023-07-31T05:10:21;97785.00;;;17.80
19040;BMP180;9652;49.014;12.052;2023-07-31T05:12:48;97786.00;;;17.80
19040;BMP180;9652;49.014;12.052;2023-07-31T05:15:16;97749.00;;;17.90
19040;BMP180;9652;49.014;12.052;2023-07-31T05:17:43;97779.00;;;18.00
19040;BMP180;9652;49.014;12.052;2023-07-31T05:20:11;97770.00;;;18.00
19040;BMP180;9652;49.014;12.052;2023-07-31T05:22:38;97776.00;;;18.10
19040;BMP180;9652;49.014;12.052;2023-07-31T05:25:08;97779.00;;;18.20
19040;BMP180;9652;49.014;12.052;2023-07-31T05:27:35;97784.00;;;18.30
19040;BMP180;9652;49.014;12.052;2023-07-31T05:30:04;97768.00;;;18.40
19040;BMP180;9652;49.014;12.052;2023-07-31T05:32:32;97744.00;;;18.50
19040;BMP180;9652;49.014;12.052;2023-07-31T05:34:59;97765.00;;;18.50
19040;BMP180;9652;49.014;12.052;2023-07-31T05:37:26;97758.00;;;18.60
19040;BMP180;9652;49.014;12.052;2023-07-31T05:39:53;97767.00;;;18.70
19040;BMP180;9652;49.014;12.052;2023-07-31T05:42:22;97772.00;;;18.80
19040;BMP180;9652;49.014;12.052;2023-07-31T05:44:49;97739.00;;;18.80
19040;BMP180;9652;49.014;12.052;2023-07-31T05:47:16;97775.00;;;18.90
19040;BMP180;9652;49.014;12.052;2023-07-31T05:49:44;97749.00;;;19.00
19040;BMP180;9652;49.014;12.052;2023-07-31T05:52:11;97778.00;;;19.20
19040;BMP180;9652;49.014;12.052;2023-07-31T05:54:38;97773.00;;;19.30
19040;BMP180;9652;49.014;12.052;2023-07-31T05:57:06;97762.00;;;19.40
19040;BMP180;9652;49.014;12.052;2023-07-31T05:59:34;97772.00;;;19.50
19040;BMP180;9652;49.014;12.052;2023-07-31T06:02:01;97754.00;;;19.60
19040;BMP180;9652;49.014;12.052;2023-07-31T06:04:28;97760.00;;;19.70
19040;BMP180;9652;49.014;12.052;2023-07-31T06:06:56;97731.00;;;19.70
19040;BMP180;9652;49.014;12.052;2023-07-31T06:09:23;97762.00;;;19.80
19040;BMP180;9652;49.014;12.052;2023-07-31T06:11:51;97766.00;;;19.90
19040;BMP180;9652;49.014;12.052;2023-07-31T06:14:18;97762.00;;;19.90
19040;BMP180;9652;49.014;12.052;2023-07-31T06:16:47;97761.00;;;19.90
19040;BMP180;9652;49.014;12.052;2023-07-31T06:19:14;97751.00;;;20.00
19040;BMP180;9652;49.014;12.052;2023-07-31T06:21:41;97755.00;;;20.00
19040;BMP180;9652;49.014;12.052;2023-07-31T06:24:09;97752.00;;;20.10
19040;BMP180;9652;49.014;12.052;2023-07-31T06:26:38;97749.00;;;20.20
19040;BMP180;9652;49.014;12.052;2023-07-31T06:29:05;97762.00;;;20.20
19040;BMP180;9652;49.014;12.052;2023-07-31T06:31:32;97744.00;;;20.30
19040;BMP180;9652;49.014;12.052;2023-07-31T06:34:01;97757.00;;;20.40
19040;BMP180;9652;49.014;12.052;2023-07-31T06:36:28;97768.00;;;20.40
19040;BMP180;9652;49.014;12.052;2023-07-31T06:38:55;97760.00;;;20.50
19040;BMP180;9652;49.014;12.052;2023-07-31T06:41:22;97768.00;;;20.60
19040;BMP180;9652;49.014;12.052;2023-07-31T06:43:49;97759.00;;;20.70
19040;BMP180;9652;49.014;12.052;2023-07-31T06:46:16;97770.00;;;20.80
19040;BMP180;9652;49.014;12.052;2023-07-31T06:48:43;97765.00;;;20.90
19040;BMP180;9652;49.014;12.052;2023-07-31T06:51:12;97742.00;;;21.00
19040;BMP180;9652;49.014;12.052;2023-07-31T06:53:39;97751.00;;;20.50
19040;BMP180;9652;49.014;12.052;2023-07-31T06:56:07;97753.00;;;21.20
19040;BMP180;9652;49.014;12.052;2023-07-31T06:58:34;97750.00;;;20.90
19040;BMP180;9652;49.014;12.052;2023-07-31T07:01:01;97759.00;;;21.50
19040;BMP180;9652;49.014;12.052;2023-07-31T07:03:28;97748.00;;;21.60
19040;BMP180;9652;49.014;12.052;2023-07-31T07:05:55;97755.00;;;21.70
19040;BMP180;9652;49.014;12.052;2023-07-31T07:08:24;97756.00;;;21.80
19040;BMP180;9652;49.014;12.052;2023-07-31T07:10:51;97751.00;;;21.90
19040;BMP180;9652;49.014;12.052;2023-07-31T07:13:18;97756.00;;;22.00
19040;BMP180;9652;49.014;12.052;2023-07-31T07:15:48;97760.00;;;22.10
19040;BMP180;9652;49.014;12.052;2023-07-31T07:18:15;97739.00;;;22.20
19040;BMP180;9652;49.014;12.052;2023-07-31T07:20:47;97750.00;;;22.30
19040;BMP180;9652;49.014;12.052;2023-07-31T07:23:14;97748.00;;;22.40
19040;BMP180;9652;49.014;12.052;2023-07-31T07:25:43;97770.00;;;22.50
19040;BMP180;9652;49.014;12.052;2023-07-31T07:28:11;97750.00;;;22.60
19040;BMP180;9652;49.014;12.052;2023-07-31T07:30:38;97753.00;;;22.70
19040;BMP180;9652;49.014;12.052;2023-07-31T07:33:05;97757.00;;;22.80
19040;BMP180;9652;49.014;12.052;2023-07-31T07:35:34;97738.00;;;22.90
19040;BMP180;9652;49.014;12.052;2023-07-31T07:38:02;97751.00;;;23.00
19040;BMP180;9652;49.014;12.052;2023-07-31T07:40:30;97720.00;;;23.00
19040;BMP180;9652;49.014;12.052;2023-07-31T07:42:58;97761.00;;;23.10
19040;BMP180;9652;49.014;12.052;2023-07-31T07:45:26;97755.00;;;23.10
19040;BMP180;9652;49.014;12.052;2023-07-31T07:47:53;97755.00;;;23.20
19040;BMP180;9652;49.014;12.052;2023-07-31T07:50:20;97760.00;;;23.20
19040;BMP180;9652;49.014;12.052;2023-07-31T07:52:47;97762.00;;;23.20
19040;BMP180;9652;49.014;12.052;2023-07-31T07:55:14;97738.00;;;23.30
19040;BMP180;9652;49.014;12.052;2023-07-31T07:57:42;97754.00;;;23.30
19040;BMP180;9652;49.014;12.052;2023-07-31T08:00:13;97760.00;;;23.30
19040;BMP180;9652;49.014;12.052;2023-07-31T08:02:40;97756.00;;;23.40
19040;BMP180;9652;49.014;12.052;2023-07-31T08:05:08;97762.00;;;23.50
19040;BMP180;9652;49.014;12.052;2023-07-31T08:07:35;97757.00;;;23.50
19040;BMP180;9652;49.014;12.052;2023-07-31T08:10:03;97771.00;;;23.70
19040;BMP180;9652;49.014;12.052;2023-07-31T08:12:30;97775.00;;;23.80
19040;BMP180;9652;49.014;12.052;2023-07-31T08:14:57;97771.00;;;23.90
19040;BMP180;9652;49.014;12.052;2023-07-31T08:17:27;97773.00;;;24.00
19040;BMP180;9652;49.014;12.052;2023-07-31T08:19:54;97781.00;;;24.10
19040;BMP180;9652;49.014;12.052;2023-07-31T08:22:24;97785.00;;;24.20
19040;BMP180;9652;49.014;12.052;2023-07-31T08:24:51;97782.00;;;24.20
19040;BMP180;9652;49.014;12.052;2023-07-31T08:27:18;97777.00;;;24.30
19040;BMP180;9652;49.014;12.052;2023-07-31T08:29:45;97780.00;;;24.30
19040;BMP180;9652;49.014;12.052;2023-07-31T08:32:12;97777.00;;;24.40
19040;BMP180;9652;49.014;12.052;2023-07-31T08:34:40;97761.00;;;24.50
19040;BMP180;9652;49.014;12.052;2023-07-31T08:37:08;97728.00;;;24.50
19040;BMP180;9652;49.014;12.052;2023-07-31T08:39:36;97760.00;;;24.60
19040;BMP180;9652;49.014;12.052;2023-07-31T08:42:08;97777.00;;;24.70
19040;BMP180;9652;49.014;12.052;2023-07-31T08:44:37;97739.00;;;24.80
19040;BMP180;9652;49.014;12.052;2023-07-31T08:47:05;97781.00;;;24.90
19040;BMP180;9652;49.014;12.052;2023-07-31T08:49:34;97757.00;;;25.00
19040;BMP180;9652;49.014;12.052;2023-07-31T08:52:04;97754.00;;;25.10
19040;BMP180;9652;49.014;12.052;2023-07-31T08:54:31;97759.00;;;25.20
19040;BMP180;9652;49.014;12.052;2023-07-31T08:56:59;97732.00;;;25.20
19040;BMP180;9652;49.014;12.052;2023-07-31T08:59:30;97753.00;;;25.20
19040;BMP180;9652;49.014;12.052;2023-07-31T09:02:05;97750.00;;;25.30
19040;BMP180;9652;49.014;12.052;2023-07-31T09:04:33;97751.00;;;25.30
19040;BMP180;9652;49.014;12.052;2023-07-31T09:07:03;97742.00;;;25.30
19040;BMP180;9652;49.014;12.052;2023-07-31T09:09:32;97735.00;;;25.30
19040;BMP180;9652;49.014;12.052;2023-07-31T09:11:59;97691.00;;;25.40
19040;BMP180;9652;49.014;12.052;2023-07-31T09:14:26;97735.00;;;25.50
19040;BMP180;9652;49.014;12.052;2023-07-31T09:16:55;97726.00;;;25.60
19040;BMP180;9652;49.014;12.052;2023-07-31T09:19:33;97728.00;;;25.70
19040;BMP180;9652;49.014;12.052;2023-07-31T09:22:05;97728.00;;;25.80
19040;BMP180;9652;49.014;12.052;2023-07-31T09:24:34;97716.00;;;25.90
19040;BMP180;9652;49.014;12.052;2023-07-31T09:27:02;97722.00;;;25.90
19040;BMP180;9652;49.014;12.052;2023-07-31T09:29:29;97735.00;;;26.00
19040;BMP180;9652;49.014;12.052;2023-07-31T09:31:57;97729.00;;;26.10
19040;BMP180;9652;49.014;12.052;2023-07-31T09:34:31;97688.00;;;26.10
19040;BMP180;9652;49.014;12.052;2023-07-31T09:37:05;97727.00;;;26.20
19040;BMP180;9652;49.014;12.052;2023-07-31T09:39:32;97730.00;;;26.20
19040;BMP180;9652;49.014;12.052;2023-07-31T09:41:59;97718.00;;;26.20
19040;BMP180;9652;49.014;12.052;2023-07-31T09:44:38;97698.00;;;26.20
19040;BMP180;9652;49.014;12.052;2023-07-31T09:47:06;97703.00;;;26.20
19040;BMP180;9652;49.014;12.052;2023-07-31T09:49:33;97695.00;;;26.20
19040;BMP180;9652;49.014;12.052;2023-07-31T09:52:00;97689.00;;;26.30
19040;BMP180;9652;49.014;12.052;2023-07-31T09:54:29;97703.00;;;26.30
19040;BMP180;9652;49.014;12.052;2023-07-31T09:56:59;97697.00;;;26.30
19040;BMP180;9652;49.014;12.052;2023-07-31T09:59:27;97696.00;;;26.30
19040;BMP180;9652;49.014;12.052;2023-07-31T10:01:56;97693.00;;;26.30
19040;BMP180;9652;49.014;12.052;2023-07-31T10:04:27;97705.00;;;26.30
19040;BMP180;9652;49.014;12.052;2023-07-31T10:06:57;97658.00;;;26.30
19040;BMP180;9652;49.014;12.052;2023-07-31T10:09:29;97680.00;;;26.30
19040;BMP180;9652;49.014;12.052;2023-07-31T10:12:02;97646.00;;;26.30
19040;BMP180;9652;49.014;12.052;2023-07-31T10:14:32;97673.00;;;26.30
19040;BMP180;9652;49.014;12.052;2023-07-31T10:17:01;97663.00;;;26.30
19040;BMP180;9652;49.014;12.052;2023-07-31T10:19:30;97652.00;;;26.30
19040;BMP180;9652;49.014;12.052;2023-07-31T10:22:02;97661.00;;;26.30
19040;BMP180;9652;49.014;12.052;2023-07-31T10:24:32;97653.00;;;26.20
19040;BMP180;9652;49.014;12.052;2023-07-31T10:27:02;97655.00;;;26.20
19040;BMP180;9652;49.014;12.052;2023-07-31T10:29:30;97615.00;;;26.30
19040;BMP180;9652;49.014;12.052;2023-07-31T10:31:58;97648.00;;;26.30
19040;BMP180;9652;49.014;12.052;2023-07-31T10:34:26;97645.00;;;26.40
19040;BMP180;9652;49.014;12.052;2023-07-31T10:37:29;97649.00;;;26.50
19040;BMP180;9652;49.014;12.052;2023-07-31T10:40:01;97550.00;;;26.60
19040;BMP180;9652;49.014;12.052;2023-07-31T10:42:31;97642.00;;;26.70
19040;BMP180;9652;49.014;12.052;2023-07-31T10:45:03;97623.00;;;26.90
19040;BMP180;9652;49.014;12.052;2023-07-31T10:47:31;97622.00;;;27.00
19040;BMP180;9652;49.014;12.052;2023-07-31T10:50:19;97632.00;;;27.10
19040;BMP180;9652;49.014;12.052;2023-07-31T10:52:48;97631.00;;;27.20
19040;BMP180;9652;49.014;12.052;2023-07-31T10:55:32;97632.00;;;27.30
19040;BMP180;9652;49.014;12.052;2023-07-31T10:58:07;97629.00;;;27.40
19040;BMP180;9652;49.014;12.052;2023-07-31T11:00:37;97625.00;;;27.50
19040;BMP180;9652;49.014;12.052;2023-07-31T11:03:06;97604.00;;;27.60
19040;BMP180;9652;49.014;12.052;2023-07-31T11:05:47;97619.00;;;27.70
19040;BMP180;9652;49.014;12.052;2023-07-31T11:08:17;97623.00;;;27.80
19040;BMP180;9652;49.014;12.052;2023-07-31T11:10:48;97620.00;;;27.90
19040;BMP180;9652;49.014;12.052;2023-07-31T11:13:15;97626.00;;;28.00
19040;BMP180;9652;49.014;12.052;2023-07-31T11:15:42;97613.00;;;28.00
19040;BMP180;9652;49.014;12.052;2023-07-31T11:18:09;97604.00;;;28.10
19040;BMP180;9652;49.014;12.052;2023-07-31T11:20:38;97602.00;;;28.10
19040;BMP180;9652;49.014;12.052;2023-07-31T11:23:08;97602.00;;;28.10
19040;BMP180;9652;49.014;12.052;2023-07-31T11:25:38;97599.00;;;28.20
19040;BMP180;9652;49.014;12.052;2023-07-31T11:28:10;97600.00;;;28.20
19040;BMP180;9652;49.014;12.052;2023-07-31T11:30:38;97586.00;;;28.20
19040;BMP180;9652;49.014;12.052;2023-07-31T11:33:08;97578.00;;;28.20
19040;BMP180;9652;49.014;12.052;2023-07-31T11:35:40;97591.00;;;28.20
19040;BMP180;9652;49.014;12.052;2023-07-31T11:38:08;97588.00;;;28.10
19040;BMP180;9652;49.014;12.052;2023-07-31T11:40:41;97587.00;;;28.20
19040;BMP180;9652;49.014;12.052;2023-07-31T11:43:10;97592.00;;;28.20
19040;BMP180;9652;49.014;12.052;2023-07-31T11:45:45;97575.00;;;28.30
19040;BMP180;9652;49.014;12.052;2023-07-31T11:48:20;97568.00;;;28.30
19040;BMP180;9652;49.014;12.052;2023-07-31T11:50:49;97573.00;;;28.30
19040;BMP180;9652;49.014;12.052;2023-07-31T11:53:21;97547.00;;;28.30
19040;BMP180;9652;49.014;12.052;2023-07-31T11:55:50;97521.00;;;28.30
19040;BMP180;9652;49.014;12.052;2023-07-31T11:58:18;97558.00;;;28.20
19040;BMP180;9652;49.014;12.052;2023-07-31T12:00:47;97548.00;;;28.20
19040;BMP180;9652;49.014;12.052;2023-07-31T12:03:15;97548.00;;;28.20
19040;BMP180;9652;49.014;12.052;2023-07-31T12:05:42;97550.00;;;28.10
19040;BMP180;9652;49.014;12.052;2023-07-31T12:08:11;97538.00;;;28.10
19040;BMP180;9652;49.014;12.052;2023-07-31T12:10:39;97545.00;;;28.10
19040;BMP180;9652;49.014;12.052;2023-07-31T12:13:09;97541.00;;;28.00
19040;BMP180;9652;49.014;12.052;2023-07-31T12:15:42;97531.00;;;27.90
19040;BMP180;9652;49.014;12.052;2023-07-31T12:18:11;97524.00;;;28.00
19040;BMP180;9652;49.014;12.052;2023-07-31T12:20:43;97542.00;;;28.00
19040;BMP180;9652;49.014;12.052;2023-07-31T12:23:15;97531.00;;;28.00
19040;BMP180;9652;49.014;12.052;2023-07-31T12:25:43;97522.00;;;28.10
19040;BMP180;9652;49.014;12.052;2023-07-31T12:28:10;97522.00;;;28.20
19040;BMP180;9652;49.014;12.052;2023-07-31T12:30:41;97511.00;;;28.30
19040;BMP180;9652;49.014;12.052;2023-07-31T12:33:14;97522.00;;;28.40
19040;BMP180;9652;49.014;12.052;2023-07-31T12:35:44;97527.00;;;28.50
19040;BMP180;9652;49.014;12.052;2023-07-31T12:38:12;97509.00;;;28.50
19040;BMP180;9652;49.014;12.052;2023-07-31T12:40:40;97492.00;;;28.60
19040;BMP180;9652;49.014;12.052;2023-07-31T12:43:07;97516.00;;;28.70
19040;BMP180;9652;49.014;12.052;2023-07-31T12:45:35;97521.00;;;28.70
19040;BMP180;9652;49.014;12.052;2023-07-31T12:48:04;97521.00;;;28.80
19040;BMP180;9652;49.014;12.052;2023-07-31T12:50:31;97515.00;;;28.90
19040;BMP180;9652;49.014;12.052;2023-07-31T12:52:58;97513.00;;;28.90
19040;BMP180;9652;49.014;12.052;2023-07-31T12:55:25;97495.00;;;29.00
19040;BMP180;9652;49.014;12.052;2023-07-31T12:57:53;97511.00;;;29.20
19040;BMP180;9652;49.014;12.052;2023-07-31T13:00:20;97521.00;;;29.30
19040;BMP180;9652;49.014;12.052;2023-07-31T13:02:47;97504.00;;;29.30
19040;BMP180;9652;49.014;12.052;2023-07-31T13:05:16;97495.00;;;29.40
19040;BMP180;9652;49.014;12.052;2023-07-31T13:07:43;97491.00;;;29.50
19040;BMP180;9652;49.014;12.052;2023-07-31T13:10:10;97428.00;;;29.50
19040;BMP180;9652;49.014;12.052;2023-07-31T13:12:38;97476.00;;;29.60
19040;BMP180;9652;49.014;12.052;2023-07-31T13:15:07;97486.00;;;29.70
19040;BMP180;9652;49.014;12.052;2023-07-31T13:17:35;97477.00;;;29.90
19040;BMP180;9652;49.014;12.052;2023-07-31T13:20:03;97472.00;;;30.00
19040;BMP180;9652;49.014;12.052;2023-07-31T13:22:32;97472.00;;;30.20
19040;BMP180;9652;49.014;12.052;2023-07-31T13:24:59;97468.00;;;30.40
19040;BMP180;9652;49.014;12.052;2023-07-31T13:27:26;97438.00;;;30.60
19040;BMP180;9652;49.014;12.052;2023-07-31T13:29:53;97442.00;;;30.90
19040;BMP180;9652;49.014;12.052;2023-07-31T13:32:21;97457.00;;;31.10
19040;BMP180;9652;49.014;12.052;2023-07-31T13:34:48;97443.00;;;31.40
19040;BMP180;9652;49.014;12.052;2023-07-31T13:37:15;97446.00;;;31.80
19040;BMP180;9652;49.014;12.052;2023-07-31T13:39:44;97438.00;;;32.10
19040;BMP180;9652;49.014;12.052;2023-07-31T13:42:11;97440.00;;;32.30
19040;BMP180;9652;49.014;12.052;2023-07-31T13:44:38;97450.00;;;32.50
19040;BMP180;9652;49.014;12.052;2023-07-31T13:47:06;97433.00;;;32.60
19040;BMP180;9652;49.014;12.052;2023-07-31T13:49:34;97446.00;;;32.70
19040;BMP180;9652;49.014;12.052;2023-07-31T13:52:02;97435.00;;;32.80
19040;BMP180;9652;49.014;12.052;2023-07-31T13:54:29;97439.00;;;32.80
19040;BMP180;9652;49.014;12.052;2023-07-31T13:56:58;97436.00;;;32.80
19040;BMP180;9652;49.014;12.052;2023-07-31T13:59:25;97424.00;;;32.90
19040;BMP180;9652;49.014;12.052;2023-07-31T14:01:52;97422.00;;;33.00
19040;BMP180;9652;49.014;12.052;2023-07-31T14:04:19;97388.00;;;33.00
19040;BMP180;9652;49.014;12.052;2023-07-31T14:06:46;97428.00;;;33.20
19040;BMP180;9652;49.014;12.052;2023-07-31T14:09:16;97415.00;;;33.30
19040;BMP180;9652;49.014;12.052;2023-07-31T14:11:43;97407.00;;;33.40
19040;BMP180;9652;49.014;12.052;2023-07-31T14:14:11;97417.00;;;33.50
19040;BMP180;9652;49.014;12.052;2023-07-31T14:16:38;97390.00;;;33.60